Terminal Aerodrome Forecast
Issued by NWS Wilmington, OH

Current Version | Previous Version | Graphics & Text | Print | Product List | Glossary On
Versions: 1 2 3 4 5 6 7 8 9 10 11 12 13 14 15
838
FTUS41 KILN 051737
TAFILN
TAF
KILN 051737Z 0518/0618 20008KT P6SM SKC
     FM060000 23005KT P6SM BKN040
     FM060600 25004KT P6SM SCT100
     FM061400 23007KT P6SM SCT080=

USA.gov is the U.S. government's official web portal to all federal, state and local government web resources and services.